sensor_id;sensor_type;location;lat;lon;timestamp;temperature;humidity
7502;DHT22;3792;47.740;7.606;2022-11-23T00:01:59;7.00;99.90
7502;DHT22;3792;47.740;7.606;2022-11-23T00:04:26;6.90;99.90
7502;DHT22;3792;47.740;7.606;2022-11-23T00:06:53;6.90;99.90
7502;DHT22;3792;47.740;7.606;2022-11-23T00:09:20;6.90;99.90
7502;DHT22;3792;47.740;7.606;2022-11-23T00:11:48;6.90;99.90
7502;DHT22;3792;47.740;7.606;2022-11-23T00:14:16;6.90;99.90
7502;DHT22;3792;47.740;7.606;2022-11-23T00:16:43;6.80;99.90
7502;DHT22;3792;47.740;7.606;2022-11-23T00:19:10;6.80;99.90
7502;DHT22;3792;47.740;7.606;2022-11-23T00:21:37;6.80;99.90
7502;DHT22;3792;47.740;7.606;2022-11-23T00:24:04;6.90;99.90
7502;DHT22;3792;47.740;7.606;2022-11-23T00:26:32;6.80;99.90
7502;DHT22;3792;47.740;7.606;2022-11-23T00:28:59;6.80;99.90
7502;DHT22;3792;47.740;7.606;2022-11-23T00:31:27;6.80;99.90
7502;DHT22;3792;47.740;7.606;2022-11-23T00:33:55;6.70;99.90
7502;DHT22;3792;47.740;7.606;2022-11-23T00:36:23;6.70;99.90
7502;DHT22;3792;47.740;7.606;2022-11-23T00:38:51;6.70;99.90
7502;DHT22;3792;47.740;7.606;2022-11-23T00:41:20;6.80;99.90
7502;DHT22;3792;47.740;7.606;2022-11-23T00:43:47;6.80;99.90
7502;DHT22;3792;47.740;7.606;2022-11-23T00:46:16;6.80;99.90
7502;DHT22;3792;47.740;7.606;2022-11-23T00:48:46;6.80;99.90
7502;DHT22;3792;47.740;7.606;2022-11-23T00:51:15;6.80;99.90
7502;DHT22;3792;47.740;7.606;2022-11-23T00:53:43;6.80;99.90
7502;DHT22;3792;47.740;7.606;2022-11-23T00:56:11;6.90;99.90
7502;DHT22;3792;47.740;7.606;2022-11-23T00:58:38;6.90;99.90
7502;DHT22;3792;47.740;7.606;2022-11-23T01:01:08;6.90;99.90
7502;DHT22;3792;47.740;7.606;2022-11-23T01:03:36;6.90;99.90
7502;DHT22;3792;47.740;7.606;2022-11-23T01:06:07;6.70;99.90
7502;DHT22;3792;47.740;7.606;2022-11-23T01:08:35;6.80;99.90
7502;DHT22;3792;47.740;7.606;2022-11-23T01:11:04;6.80;99.90
7502;DHT22;3792;47.740;7.606;2022-11-23T01:13:32;6.80;99.90
7502;DHT22;3792;47.740;7.606;2022-11-23T01:15:59;6.80;99.90
7502;DHT22;3792;47.740;7.606;2022-11-23T01:18:26;6.80;99.90
7502;DHT22;3792;47.740;7.606;2022-11-23T01:20:53;6.80;99.90
7502;DHT22;3792;47.740;7.606;2022-11-23T01:23:22;6.80;99.90
7502;DHT22;3792;47.740;7.606;2022-11-23T01:25:49;6.90;99.90
7502;DHT22;3792;47.740;7.606;2022-11-23T01:28:16;6.90;99.90
7502;DHT22;3792;47.740;7.606;2022-11-23T01:30:43;6.90;99.90
7502;DHT22;3792;47.740;7.606;2022-11-23T01:33:10;6.90;99.90
7502;DHT22;3792;47.740;7.606;2022-11-23T01:35:38;6.80;99.90
7502;DHT22;3792;47.740;7.606;2022-11-23T01:38:05;6.70;99.90
7502;DHT22;3792;47.740;7.606;2022-11-23T01:40:40;6.70;99.90
7502;DHT22;3792;47.740;7.606;2022-11-23T01:43:13;6.70;99.90
7502;DHT22;3792;47.740;7.606;2022-11-23T01:45:42;6.80;99.90
7502;DHT22;3792;47.740;7.606;2022-11-23T01:48:15;6.80;99.90
7502;DHT22;3792;47.740;7.606;2022-11-23T01:50:45;6.80;99.90
7502;DHT22;3792;47.740;7.606;2022-11-23T01:53:15;6.70;99.90
7502;DHT22;3792;47.740;7.606;2022-11-23T01:55:45;6.80;99.90
7502;DHT22;3792;47.740;7.606;2022-11-23T01:58:16;6.80;99.90
7502;DHT22;3792;47.740;7.606;2022-11-23T02:00:44;6.90;99.90
7502;DHT22;3792;47.740;7.606;2022-11-23T02:03:12;6.90;99.90
7502;DHT22;3792;47.740;7.606;2022-11-23T02:05:43;6.90;99.90
7502;DHT22;3792;47.740;7.606;2022-11-23T02:08:11;7.00;99.90
7502;DHT22;3792;47.740;7.606;2022-11-23T02:10:39;7.00;99.90
7502;DHT22;3792;47.740;7.606;2022-11-23T02:13:10;7.00;99.90
7502;DHT22;3792;47.740;7.606;2022-11-23T02:15:38;7.00;99.90
7502;DHT22;3792;47.740;7.606;2022-11-23T02:18:09;7.00;99.90
7502;DHT22;3792;47.740;7.606;2022-11-23T02:20:38;7.10;99.90
7502;DHT22;3792;47.740;7.606;2022-11-23T02:23:15;7.10;99.90
7502;DHT22;3792;47.740;7.606;2022-11-23T02:25:55;7.10;99.90
7502;DHT22;3792;47.740;7.606;2022-11-23T02:28:27;7.10;99.90
7502;DHT22;3792;47.740;7.606;2022-11-23T02:30:55;7.10;99.90
7502;DHT22;3792;47.740;7.606;2022-11-23T02:33:22;7.20;99.90
7502;DHT22;3792;47.740;7.606;2022-11-23T02:35:51;7.10;99.90
7502;DHT22;3792;47.740;7.606;2022-11-23T02:38:20;7.20;99.90
7502;DHT22;3792;47.740;7.606;2022-11-23T02:40:47;7.20;99.90
7502;DHT22;3792;47.740;7.606;2022-11-23T02:43:15;7.20;99.90
7502;DHT22;3792;47.740;7.606;2022-11-23T02:45:48;7.10;99.90
7502;DHT22;3792;47.740;7.606;2022-11-23T02:48:16;7.10;99.90
7502;DHT22;3792;47.740;7.606;2022-11-23T02:50:43;7.10;99.90
7502;DHT22;3792;47.740;7.606;2022-11-23T02:53:11;7.00;99.90
7502;DHT22;3792;47.740;7.606;2022-11-23T02:55:38;7.00;99.90
7502;DHT22;3792;47.740;7.606;2022-11-23T02:58:06;7.00;99.90
7502;DHT22;3792;47.740;7.606;2022-11-23T03:00:34;7.00;99.90
7502;DHT22;3792;47.740;7.606;2022-11-23T03:03:02;6.90;99.90
7502;DHT22;3792;47.740;7.606;2022-11-23T03:05:29;6.90;99.90
7502;DHT22;3792;47.740;7.606;2022-11-23T03:07:56;6.90;99.90
7502;DHT22;3792;47.740;7.606;2022-11-23T03:10:24;6.80;99.90
7502;DHT22;3792;47.740;7.606;2022-11-23T03:12:53;6.80;99.90
7502;DHT22;3792;47.740;7.606;2022-11-23T03:15:21;6.70;99.90
7502;DHT22;3792;47.740;7.606;2022-11-23T03:17:50;6.60;99.90
7502;DHT22;3792;47.740;7.606;2022-11-23T03:20:17;6.60;99.90
7502;DHT22;3792;47.740;7.606;2022-11-23T03:22:45;6.60;99.90
7502;DHT22;3792;47.740;7.606;2022-11-23T03:25:12;6.50;99.90
7502;DHT22;3792;47.740;7.606;2022-11-23T03:27:39;6.50;99.90
7502;DHT22;3792;47.740;7.606;2022-11-23T03:30:07;6.40;99.90
7502;DHT22;3792;47.740;7.606;2022-11-23T03:32:35;6.40;99.90
7502;DHT22;3792;47.740;7.606;2022-11-23T03:35:04;6.40;99.90
7502;DHT22;3792;47.740;7.606;2022-11-23T03:37:32;6.40;99.90
7502;DHT22;3792;47.740;7.606;2022-11-23T03:39:59;6.30;99.90
7502;DHT22;3792;47.740;7.606;2022-11-23T03:42:26;6.40;99.90
7502;DHT22;3792;47.740;7.606;2022-11-23T03:44:53;6.30;99.90
7502;DHT22;3792;47.740;7.606;2022-11-23T03:47:20;6.30;99.90
7502;DHT22;3792;47.740;7.606;2022-11-23T03:49:48;6.30;99.90
7502;DHT22;3792;47.740;7.606;2022-11-23T03:52:16;6.30;99.90
7502;DHT22;3792;47.740;7.606;2022-11-23T03:54:43;6.20;99.90
7502;DHT22;3792;47.740;7.606;2022-11-23T03:57:11;6.10;99.90
7502;DHT22;3792;47.740;7.606;2022-11-23T03:59:39;6.00;99.90
7502;DHT22;3792;47.740;7.606;2022-11-23T04:02:06;6.00;99.90
7502;DHT22;3792;47.740;7.606;2022-11-23T04:04:33;6.10;99.90
7502;DHT22;3792;47.740;7.606;2022-11-23T04:07:00;6.00;99.90
7502;DHT22;3792;47.740;7.606;2022-11-23T04:09:29;5.90;99.90
7502;DHT22;3792;47.740;7.606;2022-11-23T04:11:56;5.90;99.90
7502;DHT22;3792;47.740;7.606;2022-11-23T04:14:23;6.00;99.90
7502;DHT22;3792;47.740;7.606;2022-11-23T04:16:50;5.90;99.90
7502;DHT22;3792;47.740;7.606;2022-11-23T04:19:17;5.80;99.90
7502;DHT22;3792;47.740;7.606;2022-11-23T04:21:44;5.60;99.90
7502;DHT22;3792;47.740;7.606;2022-11-23T04:24:11;5.60;99.90
7502;DHT22;3792;47.740;7.606;2022-11-23T04:26:40;5.60;99.90
7502;DHT22;3792;47.740;7.606;2022-11-23T04:29:07;5.60;99.90
7502;DHT22;3792;47.740;7.606;2022-11-23T04:31:34;5.60;99.90
7502;DHT22;3792;47.740;7.606;2022-11-23T04:34:01;5.60;99.90
7502;DHT22;3792;47.740;7.606;2022-11-23T04:36:28;5.60;99.90
7502;DHT22;3792;47.740;7.606;2022-11-23T04:38:55;5.60;99.90
7502;DHT22;3792;47.740;7.606;2022-11-23T04:41:23;5.50;99.90
7502;DHT22;3792;47.740;7.606;2022-11-23T04:43:52;5.40;99.90
7502;DHT22;3792;47.740;7.606;2022-11-23T04:46:19;5.40;99.90
7502;DHT22;3792;47.740;7.606;2022-11-23T04:48:46;5.40;99.90
7502;DHT22;3792;47.740;7.606;2022-11-23T04:51:13;5.40;99.90
7502;DHT22;3792;47.740;7.606;2022-11-23T04:53:41;5.40;99.90
7502;DHT22;3792;47.740;7.606;2022-11-23T04:56:08;5.40;99.90
7502;DHT22;3792;47.740;7.606;2022-11-23T04:58:35;5.30;99.90
7502;DHT22;3792;47.740;7.606;2022-11-23T05:01:04;5.20;99.90
7502;DHT22;3792;47.740;7.606;2022-11-23T05:03:32;5.20;99.90
7502;DHT22;3792;47.740;7.606;2022-11-23T05:06:01;5.20;99.90
7502;DHT22;3792;47.740;7.606;2022-11-23T05:08:29;5.10;99.90
7502;DHT22;3792;47.740;7.606;2022-11-23T05:10:56;5.10;99.90
7502;DHT22;3792;47.740;7.606;2022-11-23T05:13:23;5.10;99.90
7502;DHT22;3792;47.740;7.606;2022-11-23T05:15:50;5.00;99.90
7502;DHT22;3792;47.740;7.606;2022-11-23T05:18:19;4.90;99.90
7502;DHT22;3792;47.740;7.606;2022-11-23T05:20:46;4.90;99.90
7502;DHT22;3792;47.740;7.606;2022-11-23T05:23:13;4.90;99.90
7502;DHT22;3792;47.740;7.606;2022-11-23T05:25:40;4.80;99.90
7502;DHT22;3792;47.740;7.606;2022-11-23T05:28:09;4.80;99.90
7502;DHT22;3792;47.740;7.606;2022-11-23T05:30:40;4.90;99.90
7502;DHT22;3792;47.740;7.606;2022-11-23T05:33:07;4.90;99.90
7502;DHT22;3792;47.740;7.606;2022-11-23T05:35:37;4.80;99.90
7502;DHT22;3792;47.740;7.606;2022-11-23T05:38:05;4.80;99.90
7502;DHT22;3792;47.740;7.606;2022-11-23T05:40:32;4.80;99.90
7502;DHT22;3792;47.740;7.606;2022-11-23T05:42:59;4.80;99.90
7502;DHT22;3792;47.740;7.606;2022-11-23T05:45:26;4.70;99.90
7502;DHT22;3792;47.740;7.606;2022-11-23T05:47:56;4.80;99.90
7502;DHT22;3792;47.740;7.606;2022-11-23T05:50:24;4.80;99.90
7502;DHT22;3792;47.740;7.606;2022-11-23T05:52:55;4.80;99.90
7502;DHT22;3792;47.740;7.606;2022-11-23T05:55:22;4.80;99.90
7502;DHT22;3792;47.740;7.606;2022-11-23T05:57:49;4.80;99.90
7502;DHT22;3792;47.740;7.606;2022-11-23T06:00:16;4.80;99.90
7502;DHT22;3792;47.740;7.606;2022-11-23T06:02:44;4.80;99.90
7502;DHT22;3792;47.740;7.606;2022-11-23T06:05:11;4.70;99.90
7502;DHT22;3792;47.740;7.606;2022-11-23T06:07:38;4.70;99.90
7502;DHT22;3792;47.740;7.606;2022-11-23T06:10:07;4.70;99.90
7502;DHT22;3792;47.740;7.606;2022-11-23T06:12:34;4.70;99.90
7502;DHT22;3792;47.740;7.606;2022-11-23T06:15:02;4.70;99.90
7502;DHT22;3792;47.740;7.606;2022-11-23T06:17:29;4.70;99.90
7502;DHT22;3792;47.740;7.606;2022-11-23T06:19:56;4.70;99.90
7502;DHT22;3792;47.740;7.606;2022-11-23T06:22:23;4.70;99.90
7502;DHT22;3792;47.740;7.606;2022-11-23T06:24:50;4.60;99.90
7502;DHT22;3792;47.740;7.606;2022-11-23T06:27:18;4.60;99.90
7502;DHT22;3792;47.740;7.606;2022-11-23T06:29:45;4.70;99.90
7502;DHT22;3792;47.740;7.606;2022-11-23T06:32:13;4.60;99.90
7502;DHT22;3792;47.740;7.606;2022-11-23T06:34:40;4.60;99.90
7502;DHT22;3792;47.740;7.606;2022-11-23T06:37:07;4.60;99.90
7502;DHT22;3792;47.740;7.606;2022-11-23T06:39:34;4.60;99.90
7502;DHT22;3792;47.740;7.606;2022-11-23T06:42:01;4.60;99.90
7502;DHT22;3792;47.740;7.606;2022-11-23T06:44:30;4.60;99.90
7502;DHT22;3792;47.740;7.606;2022-11-23T06:46:57;4.50;99.90
7502;DHT22;3792;47.740;7.606;2022-11-23T06:49:24;4.50;99.90
7502;DHT22;3792;47.740;7.606;2022-11-23T06:51:53;4.50;99.90
7502;DHT22;3792;47.740;7.606;2022-11-23T06:54:21;4.40;99.90
7502;DHT22;3792;47.740;7.606;2022-11-23T06:56:48;4.30;99.90
7502;DHT22;3792;47.740;7.606;2022-11-23T06:59:15;4.20;99.90
7502;DHT22;3792;47.740;7.606;2022-11-23T07:01:43;4.50;99.90
7502;DHT22;3792;47.740;7.606;2022-11-23T07:04:10;4.90;99.90
7502;DHT22;3792;47.740;7.606;2022-11-23T07:06:38;5.20;99.90
7502;DHT22;3792;47.740;7.606;2022-11-23T07:09:06;5.10;99.90
7502;DHT22;3792;47.740;7.606;2022-11-23T07:11:34;4.80;99.90
7502;DHT22;3792;47.740;7.606;2022-11-23T07:14:01;4.80;99.90
7502;DHT22;3792;47.740;7.606;2022-11-23T07:16:28;4.70;99.90
7502;DHT22;3792;47.740;7.606;2022-11-23T07:18:57;4.70;99.90
7502;DHT22;3792;47.740;7.606;2022-11-23T07:21:24;4.80;99.90
7502;DHT22;3792;47.740;7.606;2022-11-23T07:23:51;4.70;99.90
7502;DHT22;3792;47.740;7.606;2022-11-23T07:26:18;4.70;99.90
7502;DHT22;3792;47.740;7.606;2022-11-23T07:28:46;4.70;99.90
7502;DHT22;3792;47.740;7.606;2022-11-23T07:31:13;4.70;99.90
7502;DHT22;3792;47.740;7.606;2022-11-23T07:33:43;4.70;99.90
7502;DHT22;3792;47.740;7.606;2022-11-23T07:36:12;4.70;99.90
7502;DHT22;3792;47.740;7.606;2022-11-23T07:38:39;4.70;99.90
7502;DHT22;3792;47.740;7.606;2022-11-23T07:41:06;4.70;99.90
7502;DHT22;3792;47.740;7.606;2022-11-23T07:43:33;4.80;99.90
7502;DHT22;3792;47.740;7.606;2022-11-23T07:46:00;5.00;99.90
7502;DHT22;3792;47.740;7.606;2022-11-23T07:48:27;5.50;99.90
7502;DHT22;3792;47.740;7.606;2022-11-23T07:50:54;6.10;99.90
7502;DHT22;3792;47.740;7.606;2022-11-23T07:53:23;6.70;99.90
7502;DHT22;3792;47.740;7.606;2022-11-23T07:55:54;7.10;99.90
7502;DHT22;3792;47.740;7.606;2022-11-23T07:58:22;7.50;99.90
7502;DHT22;3792;47.740;7.606;2022-11-23T08:00:49;7.80;99.90
7502;DHT22;3792;47.740;7.606;2022-11-23T08:03:16;8.00;99.90
7502;DHT22;3792;47.740;7.606;2022-11-23T08:05:43;8.10;99.90
7502;DHT22;3792;47.740;7.606;2022-11-23T08:08:10;8.10;99.90
7502;DHT22;3792;47.740;7.606;2022-11-23T08:10:39;8.50;99.90
7502;DHT22;3792;47.740;7.606;2022-11-23T08:13:06;8.40;99.90
7502;DHT22;3792;47.740;7.606;2022-11-23T08:15:34;8.40;99.90
7502;DHT22;3792;47.740;7.606;2022-11-23T08:18:03;8.10;99.90
7502;DHT22;3792;47.740;7.606;2022-11-23T08:20:30;8.40;99.90
7502;DHT22;3792;47.740;7.606;2022-11-23T08:22:58;8.60;99.90
7502;DHT22;3792;47.740;7.606;2022-11-23T08:25:27;8.80;99.90
7502;DHT22;3792;47.740;7.606;2022-11-23T08:27:56;8.90;99.90
7502;DHT22;3792;47.740;7.606;2022-11-23T08:30:26;8.90;99.90
7502;DHT22;3792;47.740;7.606;2022-11-23T08:32:54;9.00;99.90
7502;DHT22;3792;47.740;7.606;2022-11-23T08:35:21;9.20;99.90
7502;DHT22;3792;47.740;7.606;2022-11-23T08:37:48;9.00;99.90
7502;DHT22;3792;47.740;7.606;2022-11-23T08:40:15;9.20;99.90
7502;DHT22;3792;47.740;7.606;2022-11-23T08:42:42;9.30;99.90
7502;DHT22;3792;47.740;7.606;2022-11-23T08:45:11;8.90;99.90
7502;DHT22;3792;47.740;7.606;2022-11-23T08:47:38;9.30;99.90
7502;DHT22;3792;47.740;7.606;2022-11-23T08:50:06;9.70;99.90
7502;DHT22;3792;47.740;7.606;2022-11-23T08:52:33;9.80;99.90
7502;DHT22;3792;47.740;7.606;2022-11-23T08:55:00;9.90;99.90
7502;DHT22;3792;47.740;7.606;2022-11-23T08:57:27;10.10;99.90
7502;DHT22;3792;47.740;7.606;2022-11-23T08:59:54;10.10;99.90
7502;DHT22;3792;47.740;7.606;2022-11-23T09:02:23;10.00;99.90
7502;DHT22;3792;47.740;7.606;2022-11-23T09:04:50;10.20;99.90
7502;DHT22;3792;47.740;7.606;2022-11-23T09:07:17;10.20;99.90
7502;DHT22;3792;47.740;7.606;2022-11-23T09:09:44;10.30;99.90
7502;DHT22;3792;47.740;7.606;2022-11-23T09:12:11;10.50;99.90
7502;DHT22;3792;47.740;7.606;2022-11-23T09:14:38;10.30;99.90
7502;DHT22;3792;47.740;7.606;2022-11-23T09:17:06;10.20;99.90
7502;DHT22;3792;47.740;7.606;2022-11-23T09:19:34;10.50;99.90
7502;DHT22;3792;47.740;7.606;2022-11-23T09:22:01;11.00;99.90
7502;DHT22;3792;47.740;7.606;2022-11-23T09:24:28;11.20;99.90
7502;DHT22;3792;47.740;7.606;2022-11-23T09:26:55;11.50;99.90
7502;DHT22;3792;47.740;7.606;2022-11-23T09:29:23;11.40;99.90
7502;DHT22;3792;47.740;7.606;2022-11-23T09:31:51;11.90;99.90
7502;DHT22;3792;47.740;7.606;2022-11-23T09:34:18;12.10;99.90
7502;DHT22;3792;47.740;7.606;2022-11-23T09:36:47;11.60;99.90
7502;DHT22;3792;47.740;7.606;2022-11-23T09:39:14;11.40;99.90
7502;DHT22;3792;47.740;7.606;2022-11-23T09:44:39;11.60;99.90
7502;DHT22;3792;47.740;7.606;2022-11-23T09:47:27;11.90;99.90
7502;DHT22;3792;47.740;7.606;2022-11-23T09:50:02;12.10;99.90
7502;DHT22;3792;47.740;7.606;2022-11-23T09:52:37;12.30;99.90
7502;DHT22;3792;47.740;7.606;2022-11-23T09:55:12;12.20;99.90
7502;DHT22;3792;47.740;7.606;2022-11-23T09:57:44;12.20;99.90
7502;DHT22;3792;47.740;7.606;2022-11-23T10:00:17;11.90;99.90
7502;DHT22;3792;47.740;7.606;2022-11-23T10:02:46;12.00;99.90
7502;DHT22;3792;47.740;7.606;2022-11-23T10:05:17;12.20;99.80
7502;DHT22;3792;47.740;7.606;2022-11-23T10:08:01;12.40;99.60
7502;DHT22;3792;47.740;7.606;2022-11-23T10:10:42;12.70;99.90
7502;DHT22;3792;47.740;7.606;2022-11-23T10:13:23;12.90;99.20
7502;DHT22;3792;47.740;7.606;2022-11-23T10:16:20;12.80;99.20
7502;DHT22;3792;47.740;7.606;2022-11-23T10:18:53;12.80;99.00
7502;DHT22;3792;47.740;7.606;2022-11-23T10:21:30;13.30;99.00
7502;DHT22;3792;47.740;7.606;2022-11-23T10:24:09;13.40;98.70
7502;DHT22;3792;47.740;7.606;2022-11-23T10:26:45;13.70;97.70
7502;DHT22;3792;47.740;7.606;2022-11-23T10:29:15;13.60;97.90
7502;DHT22;3792;47.740;7.606;2022-11-23T10:31:47;13.30;97.80
7502;DHT22;3792;47.740;7.606;2022-11-23T10:34:18;13.60;97.70
7502;DHT22;3792;47.740;7.606;2022-11-23T10:36:47;14.00;97.30
7502;DHT22;3792;47.740;7.606;2022-11-23T10:39:21;14.10;97.00
7502;DHT22;3792;47.740;7.606;2022-11-23T10:41:49;14.40;97.00
7502;DHT22;3792;47.740;7.606;2022-11-23T10:44:29;14.40;96.60
7502;DHT22;3792;47.740;7.606;2022-11-23T10:46:57;14.80;95.20
7502;DHT22;3792;47.740;7.606;2022-11-23T10:49:26;14.40;95.10
7502;DHT22;3792;47.740;7.606;2022-11-23T10:51:56;14.00;95.30
7502;DHT22;3792;47.740;7.606;2022-11-23T10:54:28;14.30;95.10
7502;DHT22;3792;47.740;7.606;2022-11-23T10:56:57;14.60;95.40
7502;DHT22;3792;47.740;7.606;2022-11-23T10:59:32;14.80;94.90
7502;DHT22;3792;47.740;7.606;2022-11-23T11:02:16;14.70;95.50
7502;DHT22;3792;47.740;7.606;2022-11-23T11:04:44;14.80;95.40
7502;DHT22;3792;47.740;7.606;2022-11-23T11:07:27;14.70;95.00
7502;DHT22;3792;47.740;7.606;2022-11-23T11:09:58;14.80;95.10
7502;DHT22;3792;47.740;7.606;2022-11-23T11:12:26;14.20;95.30
7502;DHT22;3792;47.740;7.606;2022-11-23T11:14:56;14.30;94.80
7502;DHT22;3792;47.740;7.606;2022-11-23T11:17:28;14.20;95.20
7502;DHT22;3792;47.740;7.606;2022-11-23T11:19:55;14.30;94.90
7502;DHT22;3792;47.740;7.606;2022-11-23T11:22:32;14.10;95.10
7502;DHT22;3792;47.740;7.606;2022-11-23T11:25:03;14.40;95.00
7502;DHT22;3792;47.740;7.606;2022-11-23T11:27:31;14.40;94.90
7502;DHT22;3792;47.740;7.606;2022-11-23T11:30:04;13.70;95.40
7502;DHT22;3792;47.740;7.606;2022-11-23T11:32:39;14.20;95.90
7502;DHT22;3792;47.740;7.606;2022-11-23T11:35:12;14.60;94.30
7502;DHT22;3792;47.740;7.606;2022-11-23T11:37:42;15.20;93.60
7502;DHT22;3792;47.740;7.606;2022-11-23T11:40:18;15.10;93.50
7502;DHT22;3792;47.740;7.606;2022-11-23T11:42:51;14.90;93.40
7502;DHT22;3792;47.740;7.606;2022-11-23T11:45:24;14.70;93.50
7502;DHT22;3792;47.740;7.606;2022-11-23T11:47:56;13.90;94.70
7502;DHT22;3792;47.740;7.606;2022-11-23T11:50:27;14.00;95.80
7502;DHT22;3792;47.740;7.606;2022-11-23T11:53:00;14.00;95.80
7502;DHT22;3792;47.740;7.606;2022-11-23T11:55:41;14.20;95.00
7502;DHT22;3792;47.740;7.606;2022-11-23T11:58:13;14.00;95.60
7502;DHT22;3792;47.740;7.606;2022-11-23T12:00:41;14.10;95.90
7502;DHT22;3792;47.740;7.606;2022-11-23T12:03:17;13.90;95.20
7502;DHT22;3792;47.740;7.606;2022-11-23T12:05:48;14.40;95.80
7502;DHT22;3792;47.740;7.606;2022-11-23T12:08:21;13.90;95.30
7502;DHT22;3792;47.740;7.606;2022-11-23T12:10:54;14.70;95.30
7502;DHT22;3792;47.740;7.606;2022-11-23T12:13:26;15.10;94.00
7502;DHT22;3792;47.740;7.606;2022-11-23T12:16:02;15.10;94.00
7502;DHT22;3792;47.740;7.606;2022-11-23T12:21:58;14.90;93.90
7502;DHT22;3792;47.740;7.606;2022-11-23T12:24:47;14.40;94.70
7502;DHT22;3792;47.740;7.606;2022-11-23T12:27:24;13.90;94.90
7502;DHT22;3792;47.740;7.606;2022-11-23T12:30:17;13.30;95.70
7502;DHT22;3792;47.740;7.606;2022-11-23T12:33:01;13.10;95.90
7502;DHT22;3792;47.740;7.606;2022-11-23T12:35:52;12.80;96.40
7502;DHT22;3792;47.740;7.606;2022-11-23T12:38:28;12.70;96.20
7502;DHT22;3792;47.740;7.606;2022-11-23T12:41:10;12.50;96.00
7502;DHT22;3792;47.740;7.606;2022-11-23T12:43:51;12.30;96.60
7502;DHT22;3792;47.740;7.606;2022-11-23T12:46:25;12.00;96.50
7502;DHT22;3792;47.740;7.606;2022-11-23T12:49:03;11.60;97.20
7502;DHT22;3792;47.740;7.606;2022-11-23T12:51:35;11.70;98.00
7502;DHT22;3792;47.740;7.606;2022-11-23T12:54:27;11.80;97.90
7502;DHT22;3792;47.740;7.606;2022-11-23T12:57:09;11.70;97.70
7502;DHT22;3792;47.740;7.606;2022-11-23T12:59:45;11.60;97.80
7502;DHT22;3792;47.740;7.606;2022-11-23T13:02:51;11.30;98.10
7502;DHT22;3792;47.740;7.606;2022-11-23T13:08:30;11.20;98.40
7502;DHT22;3792;47.740;7.606;2022-11-23T13:11:14;11.10;98.30
7502;DHT22;3792;47.740;7.606;2022-11-23T13:13:57;11.40;98.40
7502;DHT22;3792;47.740;7.606;2022-11-23T13:16:52;12.20;97.50
7502;DHT22;3792;47.740;7.606;2022-11-23T13:19:46;12.70;96.20
7502;DHT22;3792;47.740;7.606;2022-11-23T13:22:17;12.80;95.70
7502;DHT22;3792;47.740;7.606;2022-11-23T13:25:00;12.30;96.50
7502;DHT22;3792;47.740;7.606;2022-11-23T13:27:30;11.90;96.80
7502;DHT22;3792;47.740;7.606;2022-11-23T13:30:08;11.80;97.20
7502;DHT22;3792;47.740;7.606;2022-11-23T13:32:53;11.50;97.20
7502;DHT22;3792;47.740;7.606;2022-11-23T13:35:46;11.30;98.10
7502;DHT22;3792;47.740;7.606;2022-11-23T13:38:23;11.00;98.20
7502;DHT22;3792;47.740;7.606;2022-11-23T13:40:52;10.80;98.60
7502;DHT22;3792;47.740;7.606;2022-11-23T13:43:22;10.70;98.80
7502;DHT22;3792;47.740;7.606;2022-11-23T13:46:19;10.70;99.20
7502;DHT22;3792;47.740;7.606;2022-11-23T13:48:50;10.70;99.00
7502;DHT22;3792;47.740;7.606;2022-11-23T13:51:25;10.60;99.20
7502;DHT22;3792;47.740;7.606;2022-11-23T13:53:57;10.50;99.30
7502;DHT22;3792;47.740;7.606;2022-11-23T13:56:32;10.40;99.10
7502;DHT22;3792;47.740;7.606;2022-11-23T13:59:26;10.30;99.40
7502;DHT22;3792;47.740;7.606;2022-11-23T14:02:27;10.20;99.60
7502;DHT22;3792;47.740;7.606;2022-11-23T14:08:01;10.30;99.70
7502;DHT22;3792;47.740;7.606;2022-11-23T14:10:30;10.30;99.60
7502;DHT22;3792;47.740;7.606;2022-11-23T14:13:02;10.20;99.50
7502;DHT22;3792;47.740;7.606;2022-11-23T14:15:36;10.20;99.60
7502;DHT22;3792;47.740;7.606;2022-11-23T14:21:09;10.30;99.40
7502;DHT22;3792;47.740;7.606;2022-11-23T14:24:07;10.30;99.70
7502;DHT22;3792;47.740;7.606;2022-11-23T14:26:43;10.40;99.80
7502;DHT22;3792;47.740;7.606;2022-11-23T14:29:27;10.30;99.70
7502;DHT22;3792;47.740;7.606;2022-11-23T14:32:08;10.50;99.60
7502;DHT22;3792;47.740;7.606;2022-11-23T14:34:46;10.50;99.30
7502;DHT22;3792;47.740;7.606;2022-11-23T14:37:22;10.50;99.70
7502;DHT22;3792;47.740;7.606;2022-11-23T14:40:04;10.40;99.50
7502;DHT22;3792;47.740;7.606;2022-11-23T14:42:36;10.40;99.80
7502;DHT22;3792;47.740;7.606;2022-11-23T14:45:12;10.40;99.90
7502;DHT22;3792;47.740;7.606;2022-11-23T14:47:39;10.40;99.90
7502;DHT22;3792;47.740;7.606;2022-11-23T14:50:20;10.40;99.80
7502;DHT22;3792;47.740;7.606;2022-11-23T14:52:48;10.40;99.90
7502;DHT22;3792;47.740;7.606;2022-11-23T14:55:20;10.30;99.90
7502;DHT22;3792;47.740;7.606;2022-11-23T14:57:49;10.30;99.90
7502;DHT22;3792;47.740;7.606;2022-11-23T15:00:26;10.20;99.90
7502;DHT22;3792;47.740;7.606;2022-11-23T15:02:55;10.10;99.90
7502;DHT22;3792;47.740;7.606;2022-11-23T15:05:26;10.00;99.90
7502;DHT22;3792;47.740;7.606;2022-11-23T15:07:59;10.00;99.90
7502;DHT22;3792;47.740;7.606;2022-11-23T15:10:36;9.90;99.90
7502;DHT22;3792;47.740;7.606;2022-11-23T15:13:16;9.90;99.90
7502;DHT22;3792;47.740;7.606;2022-11-23T15:15:44;9.80;99.90
7502;DHT22;3792;47.740;7.606;2022-11-23T15:18:12;9.80;99.90
7502;DHT22;3792;47.740;7.606;2022-11-23T15:20:42;9.70;99.90
7502;DHT22;3792;47.740;7.606;2022-11-23T15:23:17;9.60;99.90
7502;DHT22;3792;47.740;7.606;2022-11-23T15:25:51;9.60;99.90
7502;DHT22;3792;47.740;7.606;2022-11-23T15:28:22;9.60;99.90
7502;DHT22;3792;47.740;7.606;2022-11-23T15:30:52;9.50;99.90
7502;DHT22;3792;47.740;7.606;2022-11-23T15:33:21;9.50;99.90
7502;DHT22;3792;47.740;7.606;2022-11-23T15:35:50;9.50;99.90
7502;DHT22;3792;47.740;7.606;2022-11-23T15:38:19;9.50;99.90
7502;DHT22;3792;47.740;7.606;2022-11-23T15:40:47;9.50;99.90
7502;DHT22;3792;47.740;7.606;2022-11-23T15:43:17;9.50;99.90
7502;DHT22;3792;47.740;7.606;2022-11-23T15:46:05;9.50;99.90
7502;DHT22;3792;47.740;7.606;2022-11-23T15:48:37;9.50;99.90
7502;DHT22;3792;47.740;7.606;2022-11-23T15:51:06;9.40;99.90
7502;DHT22;3792;47.740;7.606;2022-11-23T15:53:44;9.30;99.90
7502;DHT22;3792;47.740;7.606;2022-11-23T15:56:21;9.40;99.90
7502;DHT22;3792;47.740;7.606;2022-11-23T15:58:51;9.40;99.90
7502;DHT22;3792;47.740;7.606;2022-11-23T16:01:20;9.40;99.90
7502;DHT22;3792;47.740;7.606;2022-11-23T16:03:49;9.50;99.90
7502;DHT22;3792;47.740;7.606;2022-11-23T16:06:27;9.50;99.90
7502;DHT22;3792;47.740;7.606;2022-11-23T16:08:59;9.40;99.90
7502;DHT22;3792;47.740;7.606;2022-11-23T16:11:31;9.30;99.90
7502;DHT22;3792;47.740;7.606;2022-11-23T16:14:15;9.10;99.90
7502;DHT22;3792;47.740;7.606;2022-11-23T16:16:45;8.90;99.90
7502;DHT22;3792;47.740;7.606;2022-11-23T16:19:21;8.60;99.90
7502;DHT22;3792;47.740;7.606;2022-11-23T16:21:52;8.40;99.90
7502;DHT22;3792;47.740;7.606;2022-11-23T16:24:22;8.30;99.90
7502;DHT22;3792;47.740;7.606;2022-11-23T16:26:50;8.20;99.90
7502;DHT22;3792;47.740;7.606;2022-11-23T16:29:22;8.10;99.90
7502;DHT22;3792;47.740;7.606;2022-11-23T16:31:52;8.10;99.90
7502;DHT22;3792;47.740;7.606;2022-11-23T16:34:19;8.20;99.90
7502;DHT22;3792;47.740;7.606;2022-11-23T16:36:47;8.30;99.90
7502;DHT22;3792;47.740;7.606;2022-11-23T16:39:14;8.20;99.90
7502;DHT22;3792;47.740;7.606;2022-11-23T16:41:41;8.20;99.90
7502;DHT22;3792;47.740;7.606;2022-11-23T16:44:08;8.10;99.90
7502;DHT22;3792;47.740;7.606;2022-11-23T16:46:36;8.10;99.90
7502;DHT22;3792;47.740;7.606;2022-11-23T16:49:05;8.10;99.90
7502;DHT22;3792;47.740;7.606;2022-11-23T16:51:35;8.10;99.90